createdAt,value
2023-07-16T00:01:10.740Z,6.32
2023-07-16T00:03:38.217Z,6.20
2023-07-16T00:06:05.709Z,6.63
2023-07-16T00:08:33.289Z,7.20
2023-07-16T00:11:00.911Z,6.63
2023-07-16T00:13:28.662Z,5.82
2023-07-16T00:15:56.169Z,7.32
2023-07-16T00:18:23.619Z,6.60
2023-07-16T00:20:51.241Z,7.10
2023-07-16T00:23:18.742Z,6.50
2023-07-16T00:25:46.461Z,6.90
2023-07-16T00:28:13.978Z,6.53
2023-07-16T00:30:41.493Z,7.05
2023-07-16T00:33:09.140Z,6.90
2023-07-16T00:35:36.719Z,6.40
2023-07-16T00:38:04.252Z,6.78
2023-07-16T00:40:31.778Z,6.50
2023-07-16T00:42:59.278Z,7.30
2023-07-16T00:45:26.824Z,6.60
2023-07-16T00:47:54.372Z,6.68
2023-07-16T00:50:22.048Z,6.05
2023-07-16T00:52:50.489Z,6.63
2023-07-16T00:55:18.053Z,6.85
2023-07-16T00:57:46.601Z,6.57
2023-07-16T01:00:14.538Z,6.28
2023-07-16T01:02:42.131Z,6.47
2023-07-16T01:05:09.881Z,6.70
2023-07-16T01:07:40.946Z,6.60
2023-07-16T01:10:09.394Z,7.43
2023-07-16T01:12:37.810Z,7.25
2023-07-16T01:15:05.728Z,7.63
2023-07-16T01:17:33.229Z,7.15
2023-07-16T01:20:00.839Z,6.85
2023-07-16T01:22:47.347Z,7.18
2023-07-16T01:25:20.447Z,7.38
2023-07-16T01:28:12.704Z,7.35
2023-07-16T01:30:44.933Z,7.50
2023-07-16T01:33:15.596Z,7.38
2023-07-16T01:35:44.151Z,7.40
2023-07-16T01:38:15.034Z,7.90
2023-07-16T01:40:43.164Z,7.67
2023-07-16T01:43:10.669Z,6.97
2023-07-16T01:45:38.248Z,6.82
2023-07-16T01:48:33.533Z,7.07
2023-07-16T01:51:01.209Z,7.28
2023-07-16T01:53:28.978Z,6.95
2023-07-16T01:55:56.676Z,7.72
2023-07-16T01:58:24.522Z,7.38
2023-07-16T02:00:52.265Z,7.35
2023-07-16T02:03:19.881Z,7.78
2023-07-16T02:05:47.405Z,7.72
2023-07-16T02:08:14.969Z,8.25
2023-07-16T02:10:42.496Z,8.45
2023-07-16T02:13:12.419Z,8.07
2023-07-16T02:15:40.007Z,8.57
2023-07-16T02:18:07.592Z,8.60
2023-07-16T02:20:36.516Z,8.65
2023-07-16T02:23:04.233Z,8.75
2023-07-16T02:25:33.167Z,8.82
2023-07-16T02:28:00.593Z,8.43
2023-07-16T02:30:28.327Z,9.63
2023-07-16T02:32:55.868Z,9.00
2023-07-16T02:35:23.413Z,9.32
2023-07-16T02:37:50.984Z,8.07
2023-07-16T02:40:20.233Z,8.95
2023-07-16T02:42:47.688Z,9.30
2023-07-16T02:45:15.167Z,9.40
2023-07-16T02:47:43.380Z,9.73
2023-07-16T02:50:11.441Z,9.20
2023-07-16T02:52:39.190Z,8.95
2023-07-16T02:55:07.058Z,8.90
2023-07-16T02:57:34.600Z,8.77
2023-07-16T03:00:02.099Z,8.43
2023-07-16T03:02:29.661Z,8.30
2023-07-16T03:04:57.167Z,8.60
2023-07-16T03:07:24.760Z,8.98
2023-07-16T03:09:52.315Z,8.18
2023-07-16T03:12:19.936Z,8.95
2023-07-16T03:14:49.067Z,8.90
2023-07-16T03:17:16.770Z,8.77
2023-07-16T03:19:44.413Z,8.82
2023-07-16T03:22:12.035Z,8.95
2023-07-16T03:24:39.652Z,8.48
2023-07-16T03:27:17.443Z,9.75
2023-07-16T03:29:46.961Z,8.85
2023-07-16T03:32:16.704Z,9.30
2023-07-16T03:34:44.185Z,9.75
2023-07-16T03:37:11.690Z,8.82
2023-07-16T03:39:39.192Z,9.23
2023-07-16T03:42:06.794Z,8.48
2023-07-16T03:44:34.520Z,9.43
2023-07-16T03:47:03.923Z,9.90
2023-07-16T03:49:31.556Z,9.63
2023-07-16T03:51:59.047Z,9.43
2023-07-16T03:54:27.273Z,9.85
2023-07-16T03:56:55.280Z,9.65
2023-07-16T03:59:23.596Z,9.68
2023-07-16T04:01:51.535Z,10.27
2023-07-16T04:04:19.038Z,9.80
2023-07-16T04:06:46.574Z,9.52
2023-07-16T04:09:14.169Z,10.20
2023-07-16T04:11:41.658Z,9.73
2023-07-16T04:14:09.114Z,10.40
2023-07-16T04:16:36.666Z,10.25
2023-07-16T04:19:04.095Z,10.30
2023-07-16T04:21:31.664Z,10.25
2023-07-16T04:23:59.132Z,10.15
2023-07-16T04:26:26.692Z,10.05
2023-07-16T04:28:54.120Z,11.00
2023-07-16T04:31:21.763Z,11.57
2023-07-16T04:33:49.317Z,11.25
2023-07-16T04:36:17.640Z,11.00
2023-07-16T04:38:45.295Z,11.38
2023-07-16T04:41:13.938Z,11.38
2023-07-16T04:43:41.499Z,10.93
2023-07-16T04:46:09.048Z,11.05
2023-07-16T04:48:36.606Z,10.63
2023-07-16T04:51:04.081Z,10.80
2023-07-16T04:53:31.551Z,10.10
2023-07-16T04:55:59.015Z,10.75
2023-07-16T04:58:26.481Z,10.18
2023-07-16T05:00:54.019Z,9.23
2023-07-16T05:03:21.571Z,9.38
2023-07-16T05:05:49.102Z,10.13
2023-07-16T05:08:17.108Z,8.75
2023-07-16T05:10:44.617Z,8.50
2023-07-16T05:13:12.162Z,8.65
2023-07-16T05:15:39.815Z,8.55
2023-07-16T05:18:07.389Z,7.18
2023-07-16T05:20:34.852Z,7.07
2023-07-16T05:23:02.732Z,7.40
2023-07-16T05:25:32.533Z,8.15
2023-07-16T05:28:00.319Z,7.93
2023-07-16T05:30:27.864Z,8.50
2023-07-16T05:32:55.455Z,7.57
2023-07-16T05:35:23.120Z,7.55
2023-07-16T05:37:50.593Z,6.78
2023-07-16T05:40:18.091Z,7.00
2023-07-16T05:42:45.608Z,7.95
2023-07-16T05:45:13.108Z,7.18
2023-07-16T05:47:40.629Z,7.10
2023-07-16T05:50:08.883Z,7.05
2023-07-16T05:52:36.379Z,6.47
2023-07-16T05:55:04.172Z,6.60
2023-07-16T05:57:32.087Z,6.78
2023-07-16T05:59:59.516Z,6.70
2023-07-16T06:02:27.061Z,6.60
2023-07-16T06:04:54.508Z,6.07
2023-07-16T06:07:22.053Z,6.10
2023-07-16T06:09:49.645Z,7.20
2023-07-16T06:12:17.157Z,7.60
2023-07-16T06:14:44.705Z,6.63
2023-07-16T06:17:12.199Z,6.40
2023-07-16T06:19:39.759Z,5.50
2023-07-16T06:22:08.396Z,6.63
2023-07-16T06:24:36.353Z,5.90
2023-07-16T06:27:04.162Z,5.72
2023-07-16T06:29:31.616Z,5.18
2023-07-16T06:32:00.202Z,6.20
2023-07-16T06:34:28.001Z,5.10
2023-07-16T06:36:55.569Z,6.18
2023-07-16T06:39:23.053Z,6.00
2023-07-16T06:41:50.475Z,6.13
2023-07-16T06:44:18.023Z,5.95
2023-07-16T06:46:45.578Z,6.45
2023-07-16T06:49:12.965Z,6.13
2023-07-16T06:51:40.431Z,5.78
2023-07-16T06:54:08.944Z,5.60
2023-07-16T06:56:36.494Z,5.78
2023-07-16T06:59:03.996Z,6.53
2023-07-16T07:01:31.771Z,5.95
2023-07-16T07:03:59.400Z,6.15
2023-07-16T07:06:27.010Z,5.88
2023-07-16T07:08:54.619Z,6.85
2023-07-16T07:11:22.171Z,10.38
2023-07-16T07:13:51.678Z,7.90
2023-07-16T07:16:19.644Z,7.13
2023-07-16T07:18:47.431Z,6.45
2023-07-16T07:21:14.991Z,6.00
2023-07-16T07:23:42.515Z,7.00
2023-07-16T07:26:10.033Z,11.35
2023-07-16T07:28:37.521Z,12.80
2023-07-16T07:31:05.143Z,6.90
2023-07-16T07:33:33.677Z,6.97
2023-07-16T07:36:01.306Z,6.22
2023-07-16T07:38:29.787Z,6.72
2023-07-16T07:40:57.354Z,6.15
2023-07-16T07:43:24.825Z,6.05
2023-07-16T07:45:52.318Z,6.65
2023-07-16T07:48:19.968Z,7.85
2023-07-16T07:50:49.805Z,7.45
2023-07-16T07:53:21.676Z,6.53
2023-07-16T07:55:49.151Z,7.03
2023-07-16T07:58:16.724Z,6.55
2023-07-16T08:00:44.173Z,6.70
2023-07-16T08:03:11.808Z,6.65
2023-07-16T08:05:39.401Z,6.63
2023-07-16T08:08:07.037Z,7.07
2023-07-16T08:10:34.900Z,7.38
2023-07-16T08:13:02.461Z,6.45
2023-07-16T08:15:30.045Z,5.90
2023-07-16T08:18:00.435Z,6.03
2023-07-16T08:20:28.395Z,7.07
2023-07-16T08:22:55.864Z,7.78
2023-07-16T08:25:23.372Z,6.57
2023-07-16T08:27:50.916Z,6.90
2023-07-16T08:30:18.470Z,8.43
2023-07-16T08:32:46.020Z,7.90
2023-07-16T08:35:17.525Z,7.43
2023-07-16T08:37:45.299Z,9.18
2023-07-16T08:40:15.836Z,7.70
2023-07-16T08:42:47.235Z,7.70
2023-07-16T08:45:16.945Z,7.57
2023-07-16T08:47:44.533Z,7.32
2023-07-16T08:50:13.875Z,7.72
2023-07-16T08:52:41.455Z,6.93
2023-07-16T08:55:09.355Z,7.70
2023-07-16T08:57:37.841Z,7.50
2023-07-16T09:00:07.313Z,6.57
2023-07-16T09:02:35.019Z,7.28
2023-07-16T09:05:02.960Z,7.30
2023-07-16T09:07:30.455Z,6.55
2023-07-16T09:09:59.914Z,8.07
2023-07-16T09:12:27.816Z,7.75
2023-07-16T09:14:55.325Z,6.63
2023-07-16T09:17:26.788Z,8.07
2023-07-16T09:19:54.724Z,7.63
2023-07-16T09:22:23.659Z,7.65
2023-07-16T09:24:51.077Z,7.88
2023-07-16T09:27:18.645Z,6.40
2023-07-16T09:29:46.182Z,8.52
2023-07-16T09:32:13.816Z,7.90
2023-07-16T09:34:41.480Z,7.28
2023-07-16T09:37:08.926Z,8.13
2023-07-16T09:39:38.549Z,7.20
2023-07-16T09:42:07.628Z,7.68
2023-07-16T09:44:35.947Z,6.97
2023-07-16T09:47:03.670Z,6.32
2023-07-16T09:49:33.774Z,7.38
2023-07-16T09:52:03.452Z,7.60
2023-07-16T09:54:35.810Z,6.85
2023-07-16T09:57:05.775Z,6.90
2023-07-16T09:59:34.936Z,7.05
2023-07-16T10:02:02.661Z,6.82
2023-07-16T10:04:42.380Z,6.10
2023-07-16T10:07:23.823Z,6.88
2023-07-16T10:09:58.689Z,7.20
2023-07-16T10:12:27.686Z,6.30
2023-07-16T10:15:00.330Z,6.78
2023-07-16T10:17:28.540Z,6.90
2023-07-16T10:20:08.176Z,7.00
2023-07-16T10:22:47.818Z,7.38
2023-07-16T10:25:18.429Z,7.60
2023-07-16T10:27:47.798Z,6.70
2023-07-16T10:30:16.374Z,7.10
2023-07-16T10:32:44.876Z,7.43
2023-07-16T10:35:12.741Z,6.40
2023-07-16T10:37:40.851Z,6.65
2023-07-16T10:40:13.530Z,6.55
2023-07-16T10:42:45.232Z,6.35
2023-07-16T10:45:13.734Z,6.38
2023-07-16T10:47:56.788Z,6.30
2023-07-16T10:50:24.607Z,5.80
2023-07-16T10:52:54.024Z,5.80
2023-07-16T10:55:22.036Z,6.32
2023-07-16T10:57:50.538Z,5.70
2023-07-16T11:00:19.185Z,5.25
2023-07-16T11:02:47.544Z,5.50
2023-07-16T11:05:16.054Z,5.65
2023-07-16T11:07:51.350Z,5.25
2023-07-16T11:10:21.089Z,5.55
2023-07-16T11:12:54.145Z,5.30
2023-07-16T11:15:36.981Z,5.53
2023-07-16T11:18:04.846Z,4.32
2023-07-16T11:20:32.574Z,4.40
2023-07-16T11:23:01.819Z,5.07
2023-07-16T11:25:30.244Z,4.63
2023-07-16T11:27:57.858Z,4.75
2023-07-16T11:30:26.572Z,4.35
2023-07-16T11:32:55.196Z,5.85
2023-07-16T11:35:23.022Z,4.88
2023-07-16T11:37:50.590Z,5.10
2023-07-16T11:40:19.998Z,5.05
2023-07-16T11:42:48.106Z,5.32
2023-07-16T11:45:29.401Z,5.97
2023-07-16T11:47:57.124Z,6.20
2023-07-16T11:50:24.822Z,5.60
2023-07-16T11:52:56.488Z,5.60
2023-07-16T11:55:25.273Z,5.13
2023-07-16T11:57:52.855Z,5.70
2023-07-16T12:00:20.404Z,5.90
2023-07-16T12:02:52.806Z,5.82
2023-07-16T12:05:27.959Z,5.38
2023-07-16T12:07:58.395Z,5.40
2023-07-16T12:10:26.060Z,5.32
2023-07-16T12:12:53.546Z,5.43
2023-07-16T12:15:21.069Z,5.25
2023-07-16T12:17:48.670Z,5.65
2023-07-16T12:20:16.166Z,5.25
2023-07-16T12:22:43.689Z,5.90
2023-07-16T12:25:11.345Z,4.75
2023-07-16T12:27:38.924Z,4.50
2023-07-16T12:30:08.874Z,5.38
2023-07-16T12:32:36.491Z,5.40
2023-07-16T12:35:05.441Z,5.07
2023-07-16T12:37:35.564Z,4.95
2023-07-16T12:40:04.487Z,5.20
2023-07-16T12:42:32.138Z,4.90
2023-07-16T12:45:00.082Z,5.72
2023-07-16T12:47:27.659Z,4.57
2023-07-16T12:49:56.315Z,4.68
2023-07-16T12:52:23.874Z,4.65
2023-07-16T12:54:51.314Z,4.40
2023-07-16T12:57:19.116Z,4.75
2023-07-16T12:59:46.626Z,4.28
2023-07-16T13:02:14.179Z,4.22
2023-07-16T13:04:41.696Z,4.03
2023-07-16T13:07:09.725Z,4.07
2023-07-16T13:09:37.158Z,4.22
2023-07-16T13:12:05.006Z,4.90
2023-07-16T13:14:32.581Z,4.32
2023-07-16T13:17:02.492Z,4.50
2023-07-16T13:19:30.263Z,4.25
2023-07-16T13:21:57.731Z,4.50
2023-07-16T13:24:26.893Z,5.25
2023-07-16T13:26:54.732Z,5.80
2023-07-16T13:29:22.298Z,4.80
2023-07-16T13:31:50.271Z,5.95
2023-07-16T13:34:17.733Z,9.02
2023-07-16T13:36:45.198Z,5.22
2023-07-16T13:39:14.517Z,4.85
2023-07-16T13:41:42.093Z,4.90
2023-07-16T13:44:09.592Z,4.40
2023-07-16T13:46:38.782Z,4.53
2023-07-16T13:49:06.608Z,4.80
2023-07-16T13:51:34.080Z,4.63
2023-07-16T13:54:01.539Z,5.15
2023-07-16T13:56:29.120Z,4.70
2023-07-16T13:58:56.570Z,4.88
2023-07-16T14:01:25.933Z,4.90
2023-07-16T14:03:54.067Z,4.53
2023-07-16T14:06:21.944Z,4.13
2023-07-16T14:08:49.442Z,5.30
2023-07-16T14:11:19.865Z,4.78
2023-07-16T14:13:52.192Z,4.70
2023-07-16T14:16:20.624Z,4.68
2023-07-16T14:18:53.826Z,4.35
2023-07-16T14:21:21.452Z,6.05
2023-07-16T14:23:49.188Z,4.40
2023-07-16T14:26:16.886Z,4.13
2023-07-16T14:28:44.632Z,3.72
2023-07-16T14:31:12.179Z,4.15
2023-07-16T14:33:40.082Z,3.80
2023-07-16T14:36:07.580Z,4.38
2023-07-16T14:38:35.097Z,4.10
2023-07-16T14:41:02.611Z,4.18
2023-07-16T14:43:30.139Z,4.25
2023-07-16T14:45:57.666Z,4.07
2023-07-16T14:48:25.257Z,4.00
2023-07-16T14:50:52.984Z,3.60
2023-07-16T14:53:20.830Z,4.28
2023-07-16T14:55:52.030Z,4.47
2023-07-16T14:58:23.276Z,3.60
2023-07-16T15:00:51.243Z,3.45
2023-07-16T15:03:19.030Z,3.70
2023-07-16T15:05:46.598Z,4.82
2023-07-16T15:08:14.026Z,3.70
2023-07-16T15:10:42.136Z,3.53
2023-07-16T15:13:09.652Z,4.35
2023-07-16T15:15:37.167Z,4.88
2023-07-16T15:18:04.663Z,4.90
2023-07-16T15:20:32.212Z,4.35
2023-07-16T15:22:59.681Z,4.32
2023-07-16T15:25:27.448Z,4.28
2023-07-16T15:27:54.928Z,4.88
2023-07-16T15:30:22.402Z,4.28
2023-07-16T15:32:49.861Z,4.55
2023-07-16T15:35:17.334Z,4.65
2023-07-16T15:37:44.855Z,4.45
2023-07-16T15:40:16.324Z,4.15
2023-07-16T15:42:44.056Z,4.65
2023-07-16T15:45:17.777Z,4.53
2023-07-16T15:47:46.811Z,4.38
2023-07-16T15:50:14.290Z,4.68
2023-07-16T15:52:41.844Z,4.78
2023-07-16T15:55:09.434Z,4.43
2023-07-16T15:57:37.040Z,5.18
2023-07-16T16:00:10.703Z,5.13
2023-07-16T16:02:39.172Z,4.13
2023-07-16T16:05:07.313Z,4.25
2023-07-16T16:07:34.883Z,4.22
2023-07-16T16:10:02.840Z,4.40
2023-07-16T16:12:30.354Z,4.00
2023-07-16T16:14:57.824Z,4.00
2023-07-16T16:17:25.413Z,4.30
2023-07-16T16:19:52.997Z,4.10
2023-07-16T16:22:20.589Z,4.53
2023-07-16T16:24:48.137Z,4.05
2023-07-16T16:27:17.245Z,4.35
2023-07-16T16:29:44.757Z,4.40
2023-07-16T16:32:12.298Z,4.43
2023-07-16T16:34:39.752Z,4.10
2023-07-16T16:37:07.177Z,5.35
2023-07-16T16:39:34.648Z,4.53
2023-07-16T16:42:02.094Z,4.78
2023-07-16T16:44:29.512Z,4.85
2023-07-16T16:46:56.969Z,4.50
2023-07-16T16:49:24.448Z,5.03
2023-07-16T16:51:51.920Z,5.82
2023-07-16T16:54:19.519Z,5.40
2023-07-16T16:56:47.112Z,4.43
2023-07-16T16:59:14.692Z,5.07
2023-07-16T17:01:42.338Z,4.18
2023-07-16T17:04:10.012Z,5.07
2023-07-16T17:06:40.233Z,4.72
2023-07-16T17:09:09.224Z,4.75
2023-07-16T17:11:36.688Z,4.38
2023-07-16T17:14:04.884Z,5.07
2023-07-16T17:16:32.509Z,4.75
2023-07-16T17:19:00.045Z,5.72
2023-07-16T17:21:27.757Z,4.80
2023-07-16T17:23:55.263Z,4.60
2023-07-16T17:26:23.796Z,5.30
2023-07-16T17:28:51.451Z,7.47
2023-07-16T17:31:19.442Z,5.20
2023-07-16T17:33:47.368Z,5.38
2023-07-16T17:36:15.118Z,5.93
2023-07-16T17:38:42.594Z,6.47
2023-07-16T17:41:10.188Z,4.70
2023-07-16T17:43:37.641Z,5.80
2023-07-16T17:46:05.207Z,6.72
2023-07-16T17:48:34.146Z,4.78
2023-07-16T17:51:01.924Z,5.53
2023-07-16T17:53:30.050Z,5.78
2023-07-16T17:55:58.005Z,4.60
2023-07-16T17:58:25.504Z,4.88
2023-07-16T18:00:56.809Z,4.70
2023-07-16T18:03:24.428Z,5.30
2023-07-16T18:05:52.112Z,5.72
2023-07-16T18:08:22.423Z,5.28
2023-07-16T18:10:50.876Z,5.00
2023-07-16T18:13:18.443Z,4.80
2023-07-16T18:15:45.902Z,5.10
2023-07-16T18:18:13.354Z,5.88
2023-07-16T18:20:41.764Z,6.25
2023-07-16T18:23:09.921Z,6.65
2023-07-16T18:25:37.517Z,8.07
2023-07-16T18:28:05.062Z,9.38
2023-07-16T18:30:32.605Z,5.68
2023-07-16T18:33:00.217Z,7.20
2023-07-16T18:35:27.728Z,8.13
2023-07-16T18:37:55.231Z,5.57
2023-07-16T18:40:22.835Z,6.45
2023-07-16T18:42:50.309Z,7.45
2023-07-16T18:45:18.351Z,7.45
2023-07-16T18:47:45.937Z,4.95
2023-07-16T18:50:13.452Z,5.10
2023-07-16T18:52:40.884Z,6.03
2023-07-16T18:55:08.778Z,6.68
2023-07-16T18:57:36.296Z,6.65
2023-07-16T19:00:07.761Z,7.20
2023-07-16T19:02:35.427Z,7.20
2023-07-16T19:05:03.061Z,8.35
2023-07-16T19:07:32.286Z,8.18
2023-07-16T19:09:59.988Z,10.02
2023-07-16T19:12:27.848Z,7.55
2023-07-16T19:14:58.499Z,7.95
2023-07-16T19:17:26.802Z,8.32
2023-07-16T19:19:55.355Z,7.32
2023-07-16T19:22:24.424Z,7.53
2023-07-16T19:24:52.018Z,7.95
2023-07-16T19:27:20.032Z,9.35
2023-07-16T19:29:47.744Z,9.60
2023-07-16T19:32:15.283Z,7.75
2023-07-16T19:34:44.614Z,8.13
2023-07-16T19:37:13.992Z,9.27
2023-07-16T19:39:41.515Z,8.10
2023-07-16T19:42:09.026Z,8.38
2023-07-16T19:44:36.497Z,8.35
2023-07-16T19:47:04.916Z,8.23
2023-07-16T19:49:32.601Z,8.38
2023-07-16T19:52:00.061Z,9.35
2023-07-16T19:54:27.709Z,8.80
2023-07-16T19:56:55.305Z,8.02
2023-07-16T19:59:22.922Z,8.50
2023-07-16T20:01:50.362Z,8.52
2023-07-16T20:04:17.810Z,8.18
2023-07-16T20:06:55.129Z,8.02
2023-07-16T20:09:33.167Z,8.15
2023-07-16T20:12:00.816Z,7.85
2023-07-16T20:14:28.613Z,7.75
2023-07-16T20:16:56.102Z,8.13
2023-07-16T20:19:23.754Z,8.63
2023-07-16T20:21:51.263Z,7.65
2023-07-16T20:24:18.675Z,7.82
2023-07-16T20:26:46.187Z,7.63
2023-07-16T20:29:13.654Z,7.75
2023-07-16T20:31:41.210Z,8.77
2023-07-16T20:34:08.683Z,8.98
2023-07-16T20:36:36.133Z,8.20
2023-07-16T20:39:03.637Z,8.05
2023-07-16T20:41:31.121Z,8.80
2023-07-16T20:43:58.559Z,9.65
2023-07-16T20:46:26.265Z,8.80
2023-07-16T20:48:53.803Z,7.88
2023-07-16T20:51:21.339Z,8.75
2023-07-16T20:53:48.798Z,8.05
2023-07-16T20:56:16.327Z,8.10
2023-07-16T20:58:43.903Z,6.90
2023-07-16T21:01:13.563Z,7.38
2023-07-16T21:03:41.255Z,7.43
2023-07-16T21:06:08.841Z,7.22
2023-07-16T21:08:36.415Z,7.20
2023-07-16T21:11:04.028Z,7.70
2023-07-16T21:13:31.548Z,7.22
2023-07-16T21:15:59.067Z,7.63
2023-07-16T21:18:27.055Z,9.05
2023-07-16T21:20:54.617Z,7.63
2023-07-16T21:23:24.025Z,7.55
2023-07-16T21:25:51.766Z,7.70
2023-07-16T21:28:19.272Z,7.63
2023-07-16T21:30:46.895Z,8.60
2023-07-16T21:33:14.988Z,7.78
2023-07-16T21:35:42.521Z,8.27
2023-07-16T21:38:09.985Z,8.43
2023-07-16T21:40:38.766Z,8.07
2023-07-16T21:43:06.289Z,7.95
2023-07-16T21:45:33.895Z,8.25
2023-07-16T21:48:01.586Z,8.40
2023-07-16T21:50:29.163Z,8.38
2023-07-16T21:52:56.653Z,9.23
2023-07-16T21:55:24.318Z,7.80
2023-07-16T21:57:51.770Z,7.22
2023-07-16T22:00:23.047Z,7.07
2023-07-16T22:02:50.696Z,6.63
2023-07-16T22:05:18.261Z,7.05
2023-07-16T22:07:45.915Z,6.15
2023-07-16T22:10:15.581Z,6.10
2023-07-16T22:12:43.612Z,6.25
2023-07-16T22:15:11.415Z,6.88
2023-07-16T22:17:39.466Z,6.88
2023-07-16T22:20:11.745Z,7.18
2023-07-16T22:22:39.890Z,6.22
2023-07-16T22:25:07.942Z,6.40
2023-07-16T22:27:35.449Z,6.55
2023-07-16T22:30:04.087Z,6.80
2023-07-16T22:32:31.644Z,6.70
2023-07-16T22:34:59.165Z,6.70
2023-07-16T22:37:26.702Z,6.60
2023-07-16T22:39:54.224Z,7.13
2023-07-16T22:42:21.710Z,6.55
2023-07-16T22:44:49.406Z,6.85
2023-07-16T22:47:16.867Z,6.88
2023-07-16T22:49:44.305Z,6.10
2023-07-16T22:52:11.728Z,6.60
2023-07-16T22:54:40.817Z,6.53
2023-07-16T22:57:08.867Z,7.03
2023-07-16T22:59:36.478Z,7.15
2023-07-16T23:02:04.826Z,7.30
2023-07-16T23:04:32.375Z,6.47
2023-07-16T23:06:59.817Z,7.13
2023-07-16T23:09:27.435Z,6.70
2023-07-16T23:11:55.075Z,6.63
2023-07-16T23:14:23.884Z,6.75
2023-07-16T23:16:51.404Z,6.38
2023-07-16T23:19:18.965Z,6.75
2023-07-16T23:21:46.549Z,7.07
2023-07-16T23:24:14.060Z,7.07
2023-07-16T23:26:41.567Z,7.07
2023-07-16T23:29:09.015Z,6.25
2023-07-16T23:31:36.561Z,6.60
2023-07-16T23:34:04.123Z,6.47
2023-07-16T23:36:31.701Z,7.25
2023-07-16T23:38:59.175Z,6.55
2023-07-16T23:41:27.122Z,5.80
2023-07-16T23:43:54.639Z,6.47
2023-07-16T23:46:22.173Z,6.85
2023-07-16T23:48:49.829Z,6.47
2023-07-16T23:51:17.614Z,6.68
2023-07-16T23:53:45.358Z,6.05
2023-07-16T23:56:12.898Z,7.07
2023-07-16T23:58:40.538Z,6.75
